East Lansing, MI (48824)

8:34 AM EST on November 28, 2014 (GMT -0500)
Harper Rd. just west of Eifert Rd. | Change Station
CLOSE
Current Station
Personal Weather Station
Location: Delhi Charter Township, MI
Elevation: 896 ft
Nearby Weather Stations

Elev 896 ft 42.61 °N, 84.55 °W | Updated 12 minutes ago

Overcast
Overcast
18.5 °F
Feels Like 18 °F
N
2.7
Wind Variable Wind from SE

Today
High -- | Low -- °F
--% Chance of Precip.
Yesterday
High -- | Low -- °F
Precip. -- in
7:45 AM 5:06 PM
Waxing Crescent, 40% visible
Pressure 30.30 in
Visibility 10.0 miles
Clouds Overcast 3200 ft
Windchill 18 °F
Dew Point 12 °F
Humidity 74%
Rainfall 0.00 in
Snow Depth Not available.
UV 0 out of 12
Pollen .10 out of 12
Air Quality Not available.
Flu Activity Not available.
METAR KTEW 281311Z AUTO 15003KT 10SM OVC032 M07/M11 A3030 RMK AO2 T10731114

More Conditions Fewer Conditions

Pressure 30.30 in
Visibility 10.0 miles
Clouds Overcast 3200 ft
Windchill 18 °F
Dew Point 12 °F
Humidity 74%
Rainfall 0.00 in
Snow Depth Not available.
UV 0 out of 12
Pollen .10 out of 12
Air Quality Not available.
Flu Activity Not available.
METAR KTEW 281311Z AUTO 15003KT 10SM OVC032 M07/M11 A3030 RMK AO2 T10731114

More Conditions Fewer Conditions

10-Day Weather Forecast

Almanac

Astronomy

Nov. 28, 2014 Rise Set
Actual Time
Civil Twilight
Nautical Twilight
Astronomical Twilight
Moon
Length of Visible Light
Length of Day
Tomorrow will be .
, % of the Moon is Illuminated

Today's Extremes

State Highs State Lows

Community

WunderPhotos

Upload Photos

1,774,210 photos uploaded!

WunderBlogs® & News

Nearby

Air Quality

  Air Quality AQ Index Pollutant
Not available.

Snow Depth

Station Depth Elevation

Earthquake Activity

City Distance Mag. Time & Date
Minimum magnitude displayed is 2.5.

Coastal Water Temperatures

Place Temperature

Nearby Weather Stations